createdAt,value
2023-04-18T00:00:16.385Z,53.51
2023-04-18T00:01:18.686Z,53.41
2023-04-18T00:02:20.545Z,53.35
2023-04-18T00:03:22.421Z,53.62
2023-04-18T00:04:24.166Z,53.87
2023-04-18T00:05:26.229Z,53.96
2023-04-18T00:06:29.998Z,53.79
2023-04-18T00:07:31.625Z,53.86
2023-04-18T00:08:36.589Z,53.78
2023-04-18T00:09:38.318Z,54.03
2023-04-18T00:10:40.114Z,54.06
2023-04-18T00:11:41.636Z,54.06
2023-04-18T00:12:43.266Z,54.13
2023-04-18T00:13:47.297Z,54.02
2023-04-18T00:14:50.345Z,53.98
2023-04-18T00:15:54.225Z,54.02
2023-04-18T00:16:55.981Z,54.40
2023-04-18T00:17:57.617Z,54.43
2023-04-18T00:18:59.420Z,54.11
2023-04-18T00:20:07.124Z,54.02
2023-04-18T00:21:08.863Z,54.36
2023-04-18T00:22:13.992Z,54.33
2023-04-18T00:23:16.411Z,54.06
2023-04-18T00:24:17.993Z,54.16
2023-04-18T00:25:19.703Z,54.11
2023-04-18T00:26:21.254Z,54.34
2023-04-18T00:27:23.685Z,54.21
2023-04-18T00:28:28.546Z,54.07
2023-04-18T00:29:31.738Z,54.05
2023-04-18T00:30:33.611Z,54.33
2023-04-18T00:31:37.430Z,54.38
2023-04-18T00:32:39.165Z,54.04
2023-04-18T00:33:43.326Z,54.11
2023-04-18T00:34:45.293Z,54.18
2023-04-18T00:35:46.998Z,54.21
2023-04-18T00:36:49.627Z,54.22
2023-04-18T00:37:51.922Z,54.44
2023-04-18T00:38:53.705Z,54.37
2023-04-18T00:39:57.549Z,54.38
2023-04-18T00:41:01.288Z,54.72
2023-04-18T00:42:03.959Z,54.76
2023-04-18T00:43:07.816Z,54.69
2023-04-18T00:44:09.510Z,54.82
2023-04-18T00:45:11.408Z,55.03
2023-04-18T00:46:13.120Z,55.12
2023-04-18T00:47:17.793Z,55.69
2023-04-18T00:48:20.699Z,55.44
2023-04-18T00:49:24.011Z,55.15
2023-04-18T00:50:26.300Z,55.69
2023-04-18T00:51:28.320Z,55.29
2023-04-18T00:52:30.082Z,55.39
2023-04-18T00:53:31.920Z,55.20
2023-04-18T00:54:35.764Z,55.95
2023-04-18T00:55:38.418Z,55.86
2023-04-18T00:56:42.940Z,55.68
2023-04-18T00:57:44.576Z,55.86
2023-04-18T00:58:46.391Z,55.79
2023-04-18T00:59:50.265Z,55.83
2023-04-18T01:00:54.683Z,55.67
2023-04-18T01:01:56.421Z,55.34
2023-04-18T01:03:00.931Z,55.51
2023-04-18T01:04:02.796Z,55.91
2023-04-18T01:05:04.797Z,56.27
2023-04-18T01:06:06.522Z,55.95
2023-04-18T01:07:08.510Z,55.58
2023-04-18T01:08:11.098Z,55.85
2023-04-18T01:09:14.002Z,55.67
2023-04-18T01:10:15.981Z,55.52
2023-04-18T01:11:17.670Z,55.79
2023-04-18T01:12:26.417Z,55.71
2023-04-18T01:13:29.345Z,55.79
2023-04-18T01:14:31.039Z,55.85
2023-04-18T01:15:32.595Z,55.94
2023-04-18T01:16:34.852Z,55.84
2023-04-18T01:17:36.529Z,56.01
2023-04-18T01:18:40.172Z,56.61
2023-04-18T01:19:42.652Z,55.85
2023-04-18T01:20:46.753Z,55.87
2023-04-18T01:21:53.441Z,55.96
2023-04-18T01:22:57.389Z,55.55
2023-04-18T01:24:08.284Z,55.44
2023-04-18T01:25:11.987Z,55.27
2023-04-18T01:26:13.796Z,55.33
2023-04-18T01:27:15.533Z,55.07
2023-04-18T01:28:19.863Z,55.05
2023-04-18T01:29:25.360Z,54.94
2023-04-18T01:30:27.018Z,55.22
2023-04-18T01:31:28.593Z,55.21
2023-04-18T01:32:31.079Z,54.82
2023-04-18T01:33:32.594Z,54.99
2023-04-18T01:34:34.342Z,54.83
2023-04-18T01:35:36.072Z,54.90
2023-04-18T01:36:37.919Z,54.86
2023-04-18T01:37:39.589Z,54.90
2023-04-18T01:38:42.010Z,54.86
2023-04-18T01:39:47.589Z,54.74
2023-04-18T01:40:50.449Z,54.52
2023-04-18T01:41:52.113Z,54.77
2023-04-18T01:42:53.733Z,54.81
2023-04-18T01:43:55.419Z,54.64
2023-04-18T01:44:59.454Z,54.64
2023-04-18T01:46:04.335Z,54.54
2023-04-18T01:47:05.944Z,54.75
2023-04-18T01:48:07.650Z,54.59
2023-04-18T01:49:11.442Z,54.83
2023-04-18T01:50:13.368Z,54.50
2023-04-18T01:51:15.025Z,54.74
2023-04-18T01:52:17.377Z,54.57
2023-04-18T01:53:19.265Z,54.40
2023-04-18T01:54:21.754Z,54.90
2023-04-18T01:55:23.235Z,54.83
2023-04-18T01:56:24.957Z,54.36
2023-04-18T01:57:28.639Z,54.51
2023-04-18T01:58:32.872Z,54.54
2023-04-18T01:59:34.580Z,54.72
2023-04-18T02:00:36.888Z,54.78
2023-04-18T02:01:40.564Z,54.61
2023-04-18T02:02:42.762Z,54.61
2023-04-18T02:03:44.820Z,54.42
2023-04-18T02:04:47.820Z,54.23
2023-04-18T02:05:49.390Z,54.66
2023-04-18T02:06:50.957Z,54.83
2023-04-18T02:07:52.974Z,54.78
2023-04-18T02:08:54.591Z,54.77
2023-04-18T02:09:59.731Z,54.73
2023-04-18T02:11:01.798Z,55.05
2023-04-18T02:12:03.539Z,54.96
2023-04-18T02:13:06.680Z,54.95
2023-04-18T02:14:08.375Z,54.78
2023-04-18T02:15:10.614Z,55.08
2023-04-18T02:16:13.272Z,54.90
2023-04-18T02:17:14.940Z,54.80
2023-04-18T02:18:17.473Z,55.14
2023-04-18T02:19:19.117Z,55.10
2023-04-18T02:20:20.782Z,55.35
2023-04-18T02:21:22.715Z,55.33
2023-04-18T02:22:24.346Z,55.04
2023-04-18T02:23:25.921Z,55.22
2023-04-18T02:24:30.391Z,54.90
2023-04-18T02:25:31.994Z,55.28
2023-04-18T02:26:35.806Z,55.27
2023-04-18T02:27:38.427Z,55.07
2023-04-18T02:28:40.067Z,55.03
2023-04-18T02:29:41.712Z,55.27
2023-04-18T02:30:43.509Z,54.91
2023-04-18T02:31:47.284Z,54.96
2023-04-18T02:32:53.962Z,55.14
2023-04-18T02:33:58.968Z,54.73
2023-04-18T02:35:02.852Z,54.99
2023-04-18T02:36:04.939Z,55.08
2023-04-18T02:37:06.578Z,54.86
2023-04-18T02:38:08.683Z,55.06
2023-04-18T02:39:10.425Z,54.79
2023-04-18T02:40:12.792Z,54.95
2023-04-18T02:41:17.453Z,54.94
2023-04-18T02:42:19.156Z,54.96
2023-04-18T02:43:20.752Z,54.90
2023-04-18T02:44:22.309Z,54.81
2023-04-18T02:45:23.948Z,54.78
2023-04-18T02:46:25.834Z,55.10
2023-04-18T02:47:27.918Z,54.87
2023-04-18T02:48:29.654Z,55.07
2023-04-18T02:49:32.249Z,54.84
2023-04-18T02:50:35.481Z,54.76
2023-04-18T02:51:37.205Z,54.53
2023-04-18T02:52:39.206Z,54.72
2023-04-18T02:53:41.439Z,54.58
2023-04-18T02:54:43.256Z,54.54
2023-04-18T02:55:52.355Z,55.00
2023-04-18T02:56:56.907Z,54.64
2023-04-18T02:58:13.832Z,54.58
2023-04-18T02:59:33.839Z,54.91
2023-04-18T03:00:47.009Z,54.62
2023-04-18T03:02:16.697Z,54.45
2023-04-18T03:03:25.105Z,54.65
2023-04-18T03:04:38.397Z,54.90
2023-04-18T03:05:42.804Z,54.88
2023-04-18T03:06:44.393Z,55.07
2023-04-18T03:07:46.299Z,54.68
2023-04-18T03:08:47.953Z,55.21
2023-04-18T03:09:49.821Z,54.97
2023-04-18T03:10:56.857Z,54.82
2023-04-18T03:12:02.080Z,54.78
2023-04-18T03:13:05.405Z,54.31
2023-04-18T03:14:08.067Z,54.58
2023-04-18T03:15:20.666Z,54.54
2023-04-18T03:16:22.795Z,54.58
2023-04-18T03:17:24.847Z,54.48
2023-04-18T03:18:29.695Z,54.37
2023-04-18T03:19:36.427Z,54.39
2023-04-18T03:20:42.747Z,54.21
2023-04-18T03:21:44.209Z,54.73
2023-04-18T03:22:46.726Z,54.80
2023-04-18T03:23:53.063Z,54.45
2023-04-18T03:24:56.039Z,54.18
2023-04-18T03:26:13.749Z,54.20
2023-04-18T03:27:19.738Z,54.44
2023-04-18T03:28:22.340Z,54.58
2023-04-18T03:29:24.647Z,54.44
2023-04-18T03:30:26.551Z,54.58
2023-04-18T03:31:30.818Z,54.58
2023-04-18T03:32:34.020Z,54.46
2023-04-18T03:33:36.244Z,54.83
2023-04-18T03:34:45.641Z,54.77
2023-04-18T03:35:49.647Z,54.72
2023-04-18T03:36:56.481Z,55.06
2023-04-18T03:37:58.475Z,54.99
2023-04-18T03:39:05.161Z,54.93
2023-04-18T03:40:07.286Z,54.92
2023-04-18T03:41:08.988Z,55.01
2023-04-18T03:42:14.492Z,54.77
2023-04-18T03:43:19.205Z,54.98
2023-04-18T03:44:20.942Z,54.89
2023-04-18T03:45:22.480Z,54.99
2023-04-18T03:46:25.304Z,54.73
2023-04-18T03:47:33.240Z,54.67
2023-04-18T03:48:37.317Z,54.57
2023-04-18T03:49:43.625Z,54.73
2023-04-18T03:50:45.382Z,54.60
2023-04-18T03:51:49.959Z,55.08
2023-04-18T03:52:55.074Z,54.89
2023-04-18T03:53:56.666Z,54.74
2023-04-18T03:54:58.296Z,54.96
2023-04-18T03:56:05.660Z,54.73
2023-04-18T03:57:27.117Z,54.92
2023-04-18T03:58:28.875Z,54.84
2023-04-18T03:59:32.912Z,55.30
2023-04-18T04:00:35.501Z,55.11
2023-04-18T04:01:42.584Z,54.96
2023-04-18T04:02:46.898Z,54.84
2023-04-18T04:03:54.573Z,54.87
2023-04-18T04:04:56.672Z,54.78
2023-04-18T04:05:58.909Z,54.99
2023-04-18T04:07:00.974Z,54.98
2023-04-18T04:08:09.832Z,54.57
2023-04-18T04:09:13.829Z,54.46
2023-04-18T04:10:15.613Z,54.62
2023-04-18T04:11:17.574Z,54.56
2023-04-18T04:12:19.301Z,54.40
2023-04-18T04:13:20.868Z,54.75
2023-04-18T04:14:24.654Z,54.50
2023-04-18T04:15:29.145Z,54.46
2023-04-18T04:16:37.201Z,54.88
2023-04-18T04:17:39.380Z,54.64
2023-04-18T04:18:40.982Z,54.98
2023-04-18T04:19:42.618Z,54.99
2023-04-18T04:20:48.031Z,54.91
2023-04-18T04:22:02.476Z,55.06
2023-04-18T04:23:04.198Z,54.71
2023-04-18T04:24:07.544Z,54.95
2023-04-18T04:25:13.874Z,54.74
2023-04-18T04:26:23.346Z,54.68
2023-04-18T04:27:34.004Z,54.75
2023-04-18T04:28:36.126Z,54.88
2023-04-18T04:29:39.962Z,54.74
2023-04-18T04:31:28.219Z,55.10
2023-04-18T04:32:31.443Z,54.82
2023-04-18T04:33:35.683Z,54.77
2023-04-18T04:34:41.659Z,55.21
2023-04-18T04:35:49.839Z,55.18
2023-04-18T04:36:54.734Z,54.97
2023-04-18T04:37:58.880Z,54.97
2023-04-18T04:39:08.610Z,54.87
2023-04-18T04:40:25.003Z,55.00
2023-04-18T04:41:43.393Z,55.34
2023-04-18T04:42:47.215Z,55.21
2023-04-18T04:43:54.470Z,55.44
2023-04-18T04:45:01.669Z,55.18
2023-04-18T04:46:04.655Z,55.48
2023-04-18T04:47:06.403Z,55.38
2023-04-18T04:48:13.822Z,55.68
2023-04-18T04:49:16.480Z,55.62
2023-04-18T04:50:18.486Z,55.97
2023-04-18T04:51:20.101Z,55.49
2023-04-18T04:52:21.698Z,55.82
2023-04-18T04:53:25.647Z,55.66
2023-04-18T04:54:27.753Z,55.46
2023-04-18T04:55:29.769Z,55.37
2023-04-18T04:56:32.411Z,55.45
2023-04-18T04:57:59.857Z,55.35
2023-04-18T04:59:24.355Z,55.58
2023-04-18T05:00:25.998Z,55.79
2023-04-18T05:01:27.680Z,55.74
2023-04-18T05:02:30.085Z,55.75
2023-04-18T05:03:32.022Z,55.39
2023-04-18T05:04:33.993Z,55.78
2023-04-18T05:05:35.897Z,55.61
2023-04-18T05:06:39.650Z,55.77
2023-04-18T05:07:41.948Z,55.49
2023-04-18T05:08:43.489Z,55.83
2023-04-18T05:09:45.268Z,55.55
2023-04-18T05:10:47.663Z,55.42
2023-04-18T05:11:51.911Z,55.47
2023-04-18T05:12:56.392Z,55.27
2023-04-18T05:13:58.020Z,55.24
2023-04-18T05:14:59.632Z,55.22
2023-04-18T05:16:01.420Z,54.96
2023-04-18T05:17:04.147Z,55.47
2023-04-18T05:18:06.229Z,55.07
2023-04-18T05:19:07.836Z,54.79
2023-04-18T05:20:10.194Z,54.74
2023-04-18T05:21:11.822Z,55.06
2023-04-18T05:22:13.452Z,54.63
2023-04-18T05:23:14.990Z,55.21
2023-04-18T05:24:19.016Z,54.78
2023-04-18T05:25:20.770Z,54.54
2023-04-18T05:26:22.524Z,54.99
2023-04-18T05:27:26.651Z,54.65
2023-04-18T05:28:30.647Z,54.92
2023-04-18T05:29:34.732Z,54.47
2023-04-18T05:30:36.477Z,54.51
2023-04-18T05:31:37.979Z,54.84
2023-04-18T05:32:39.614Z,54.71
2023-04-18T05:33:41.264Z,54.67
2023-04-18T05:34:43.014Z,54.62
2023-04-18T05:35:44.649Z,54.81
2023-04-18T05:36:47.799Z,54.70
2023-04-18T05:37:49.357Z,54.60
2023-04-18T05:38:51.679Z,54.38
2023-04-18T05:39:53.424Z,54.42
2023-04-18T05:40:55.839Z,54.85
2023-04-18T05:41:58.347Z,54.45
2023-04-18T05:43:00.903Z,54.01
2023-04-18T05:44:05.861Z,54.20
2023-04-18T05:45:08.349Z,54.17
2023-04-18T05:46:10.213Z,53.92
2023-04-18T05:47:11.866Z,54.09
2023-04-18T05:48:14.446Z,54.07
2023-04-18T05:49:16.205Z,54.15
2023-04-18T05:50:17.709Z,54.35
2023-04-18T05:51:19.426Z,54.08
2023-04-18T05:52:21.060Z,54.47
2023-04-18T05:53:22.702Z,54.35
2023-04-18T05:54:27.565Z,54.15
2023-04-18T05:55:29.272Z,54.63
2023-04-18T05:56:31.043Z,54.14
2023-04-18T05:57:32.561Z,54.61
2023-04-18T05:58:37.214Z,54.36
2023-04-18T05:59:38.860Z,54.43
2023-04-18T06:00:42.249Z,54.23
2023-04-18T06:01:44.292Z,54.31
2023-04-18T06:02:46.063Z,54.36
2023-04-18T06:03:48.117Z,54.18
2023-04-18T06:04:50.060Z,54.31
2023-04-18T06:05:54.668Z,54.25
2023-04-18T06:06:56.580Z,54.62
2023-04-18T06:07:58.413Z,54.44
2023-04-18T06:09:02.485Z,54.83
2023-04-18T06:10:07.737Z,54.46
2023-04-18T06:11:09.520Z,54.18
2023-04-18T06:12:13.197Z,54.78
2023-04-18T06:13:14.900Z,54.27
2023-04-18T06:14:20.980Z,54.94
2023-04-18T06:15:24.888Z,54.39
2023-04-18T06:16:26.720Z,54.28
2023-04-18T06:17:31.009Z,54.23
2023-04-18T06:18:36.943Z,54.29
2023-04-18T06:19:39.549Z,54.51
2023-04-18T06:20:45.326Z,54.33
2023-04-18T06:21:50.706Z,54.05
2023-04-18T06:22:54.647Z,54.13
2023-04-18T06:24:01.585Z,54.16
2023-04-18T06:25:03.532Z,54.09
2023-04-18T06:26:09.199Z,53.59
2023-04-18T06:27:20.479Z,53.71
2023-04-18T06:28:32.315Z,53.41
2023-04-18T06:29:35.545Z,53.14
2023-04-18T06:30:37.761Z,53.15
2023-04-18T06:31:39.366Z,53.02
2023-04-18T06:32:41.304Z,53.20
2023-04-18T06:33:44.795Z,52.87
2023-04-18T06:34:46.390Z,52.76
2023-04-18T06:35:48.077Z,52.24
2023-04-18T06:36:50.416Z,52.29
2023-04-18T06:37:52.365Z,52.03
2023-04-18T06:38:54.482Z,52.22
2023-04-18T06:39:56.196Z,51.95
2023-04-18T06:40:57.780Z,51.94
2023-04-18T06:41:59.448Z,52.14
2023-04-18T06:43:03.325Z,51.67
2023-04-18T06:44:07.305Z,51.81
2023-04-18T06:45:11.919Z,51.66
2023-04-18T06:46:13.891Z,51.84
2023-04-18T06:47:16.173Z,51.31
2023-04-18T06:48:17.784Z,51.57
2023-04-18T06:49:20.762Z,52.01
2023-04-18T06:50:26.259Z,51.31
2023-04-18T06:51:27.930Z,51.32
2023-04-18T06:52:29.485Z,51.48
2023-04-18T06:53:31.138Z,51.21
2023-04-18T06:54:32.909Z,51.03
2023-04-18T06:55:34.579Z,51.04
2023-04-18T06:56:38.348Z,51.35
2023-04-18T06:57:41.338Z,51.06
2023-04-18T06:58:45.728Z,51.06
2023-04-18T06:59:47.401Z,50.94
2023-04-18T07:00:52.044Z,51.23
2023-04-18T07:01:53.906Z,50.76
2023-04-18T07:02:55.538Z,50.90
2023-04-18T07:03:57.223Z,50.74
2023-04-18T07:04:58.861Z,50.73
2023-04-18T07:06:00.765Z,50.61
2023-04-18T07:07:03.769Z,50.48
2023-04-18T07:08:08.001Z,50.25
2023-04-18T07:09:09.626Z,50.22
2023-04-18T07:10:13.653Z,50.34
2023-04-18T07:11:18.623Z,50.36
2023-04-18T07:12:20.808Z,50.42
2023-04-18T07:13:22.428Z,50.09
2023-04-18T07:14:24.749Z,50.18
2023-04-18T07:15:26.444Z,50.06
2023-04-18T07:16:28.012Z,50.22
2023-04-18T07:17:29.901Z,50.23
2023-04-18T07:18:37.859Z,50.02
2023-04-18T07:19:41.110Z,49.74
2023-04-18T07:20:42.799Z,49.71
2023-04-18T07:21:45.933Z,49.53
2023-04-18T07:22:48.164Z,49.57
2023-04-18T07:23:52.248Z,49.61
2023-04-18T07:24:56.138Z,49.43
2023-04-18T07:25:59.523Z,49.26
2023-04-18T07:27:02.593Z,49.25
2023-04-18T07:28:04.399Z,48.91
2023-04-18T07:29:05.904Z,49.51
2023-04-18T07:30:08.186Z,49.15
2023-04-18T07:31:11.602Z,49.03
2023-04-18T07:32:13.461Z,48.79
2023-04-18T07:33:15.015Z,48.99
2023-04-18T07:34:17.331Z,48.71
2023-04-18T07:35:18.965Z,48.87
2023-04-18T07:36:21.536Z,49.07
2023-04-18T07:37:26.168Z,48.83
2023-04-18T07:38:30.348Z,48.95
2023-04-18T07:39:35.804Z,48.82
2023-04-18T07:40:37.630Z,48.38
2023-04-18T07:41:39.244Z,48.52
2023-04-18T07:42:40.933Z,48.05
2023-04-18T07:43:44.727Z,47.73
2023-04-18T07:44:47.002Z,47.84
2023-04-18T07:45:52.229Z,47.53
2023-04-18T07:46:53.895Z,47.45
2023-04-18T07:47:55.637Z,47.42
2023-04-18T07:48:57.296Z,47.79
2023-04-18T07:49:58.931Z,47.49
2023-04-18T07:51:02.910Z,48.03
2023-04-18T07:52:04.852Z,47.56
2023-04-18T07:53:08.206Z,47.33
2023-04-18T07:54:11.159Z,47.11
2023-04-18T07:55:13.043Z,47.10
2023-04-18T07:56:14.599Z,47.37
2023-04-18T07:57:16.335Z,47.45
2023-04-18T07:58:18.082Z,46.98
2023-04-18T07:59:22.492Z,46.82
2023-04-18T08:00:24.604Z,46.89
2023-04-18T08:01:27.280Z,46.50
2023-04-18T08:02:29.289Z,46.43
2023-04-18T08:03:31.145Z,46.20
2023-04-18T08:04:33.167Z,46.32
2023-04-18T08:05:34.968Z,46.42
2023-04-18T08:06:36.893Z,46.70
2023-04-18T08:07:38.687Z,46.37
2023-04-18T08:08:40.386Z,46.22
2023-04-18T08:09:42.024Z,46.31
2023-04-18T08:10:43.666Z,46.84
2023-04-18T08:11:45.270Z,46.31
2023-04-18T08:12:46.881Z,46.29
2023-04-18T08:13:53.112Z,46.53
2023-04-18T08:14:54.740Z,46.50
2023-04-18T08:15:56.396Z,46.34
2023-04-18T08:16:57.890Z,46.84
2023-04-18T08:18:00.374Z,46.64
2023-04-18T08:19:02.019Z,45.96
2023-04-18T08:20:07.223Z,45.33
2023-04-18T08:21:09.011Z,45.29
2023-04-18T08:22:10.885Z,45.61
2023-04-18T08:23:13.388Z,45.09
2023-04-18T08:24:15.185Z,44.75
2023-04-18T08:25:17.025Z,45.01
2023-04-18T08:26:19.664Z,44.62
2023-04-18T08:27:23.630Z,44.59
2023-04-18T08:28:25.719Z,44.80
2023-04-18T08:29:27.397Z,43.85
2023-04-18T08:30:31.697Z,43.40
2023-04-18T08:31:35.633Z,43.56
2023-04-18T08:32:37.424Z,43.58
2023-04-18T08:33:41.775Z,42.99
2023-04-18T08:34:46.890Z,42.92
2023-04-18T08:35:51.020Z,42.96
2023-04-18T08:36:52.594Z,42.98
2023-04-18T08:37:54.274Z,43.08
2023-04-18T08:38:59.252Z,42.78
2023-04-18T08:40:05.345Z,42.82
2023-04-18T08:41:08.516Z,42.71
2023-04-18T08:42:10.833Z,42.61
2023-04-18T08:43:16.638Z,42.00
2023-04-18T08:44:19.149Z,41.80
2023-04-18T08:45:20.983Z,41.70
2023-04-18T08:46:22.782Z,42.55
2023-04-18T08:47:28.397Z,41.73
2023-04-18T08:48:32.528Z,42.03
2023-04-18T08:49:34.122Z,41.53
2023-04-18T08:50:36.194Z,41.20
2023-04-18T08:51:39.950Z,41.13
2023-04-18T08:52:45.631Z,40.91
2023-04-18T08:53:50.630Z,41.21
2023-04-18T08:54:52.690Z,40.13
2023-04-18T08:55:57.932Z,39.43
2023-04-18T08:57:07.720Z,39.39
2023-04-18T08:58:12.442Z,39.67
2023-04-18T08:59:14.799Z,39.80
2023-04-18T09:00:18.055Z,39.71
2023-04-18T09:01:19.759Z,39.59
2023-04-18T09:02:23.321Z,39.37
2023-04-18T09:03:42.107Z,38.88
2023-04-18T09:04:45.898Z,39.17
2023-04-18T09:06:12.518Z,38.69
2023-04-18T09:07:20.503Z,38.41
2023-04-18T09:08:24.313Z,38.25
2023-04-18T09:09:27.537Z,38.02
2023-04-18T09:10:34.075Z,38.09
2023-04-18T09:11:35.725Z,37.74
2023-04-18T09:12:50.555Z,37.56
2023-04-18T09:13:53.370Z,37.37
2023-04-18T09:15:12.341Z,36.89
2023-04-18T09:16:16.903Z,36.51
2023-04-18T09:17:37.740Z,36.66
2023-04-18T09:18:42.412Z,36.52
2023-04-18T09:19:50.078Z,35.90
2023-04-18T09:20:51.840Z,36.32
2023-04-18T09:22:02.056Z,36.58
2023-04-18T09:23:11.678Z,36.32
2023-04-18T09:24:23.804Z,36.50
2023-04-18T09:25:40.746Z,36.91
2023-04-18T09:26:47.132Z,36.66
2023-04-18T09:27:48.718Z,37.07
2023-04-18T09:28:53.845Z,36.97
2023-04-18T09:29:57.821Z,37.23
2023-04-18T09:31:11.971Z,36.80
2023-04-18T09:32:39.949Z,37.03
2023-04-18T09:33:54.201Z,37.20
2023-04-18T09:35:04.946Z,37.13
2023-04-18T09:36:21.528Z,36.70
2023-04-18T09:37:26.461Z,37.23
2023-04-18T09:38:42.582Z,36.89
2023-04-18T09:39:45.840Z,37.03
2023-04-18T09:40:47.525Z,37.11
2023-04-18T09:41:58.590Z,37.16
2023-04-18T09:43:00.502Z,37.33
2023-04-18T09:44:14.338Z,37.40
2023-04-18T09:45:20.094Z,37.68
2023-04-18T09:46:22.642Z,36.96
2023-04-18T09:47:24.417Z,37.08
2023-04-18T09:48:28.399Z,37.43
2023-04-18T09:49:30.260Z,37.47
2023-04-18T09:50:33.016Z,37.88
2023-04-18T09:51:35.141Z,37.50
2023-04-18T09:52:41.415Z,36.87
2023-04-18T09:53:47.479Z,36.75
2023-04-18T09:54:55.735Z,36.82
2023-04-18T09:55:57.982Z,37.31
2023-04-18T09:57:02.777Z,37.58
2023-04-18T09:58:05.188Z,37.43
2023-04-18T09:59:09.034Z,37.21
2023-04-18T10:00:20.262Z,37.45
2023-04-18T10:01:23.204Z,37.54
2023-04-18T10:02:28.901Z,37.99
2023-04-18T10:03:38.030Z,38.27
2023-04-18T10:04:40.644Z,37.60
2023-04-18T10:05:42.939Z,37.57
2023-04-18T10:06:48.068Z,37.17
2023-04-18T10:07:50.872Z,37.61
2023-04-18T10:08:53.709Z,37.96
2023-04-18T10:09:57.814Z,36.97
2023-04-18T10:11:02.441Z,37.33
2023-04-18T10:12:06.488Z,37.69
2023-04-18T10:13:11.636Z,37.27
2023-04-18T10:14:18.787Z,37.68
2023-04-18T10:15:22.325Z,37.70
2023-04-18T10:16:24.279Z,37.92
2023-04-18T10:17:29.274Z,38.00
2023-04-18T10:18:31.329Z,37.85
2023-04-18T10:19:32.852Z,38.59
2023-04-18T10:20:35.501Z,38.40
2023-04-18T10:21:37.274Z,37.74
2023-04-18T10:22:38.914Z,38.17
2023-04-18T10:23:40.680Z,38.33
2023-04-18T10:24:45.590Z,38.47
2023-04-18T10:25:48.341Z,38.13
2023-04-18T10:26:52.121Z,38.35
2023-04-18T10:27:58.917Z,38.04
2023-04-18T10:29:03.951Z,37.71
2023-04-18T10:30:09.185Z,37.90
2023-04-18T10:31:11.773Z,37.34
2023-04-18T10:32:13.514Z,37.08
2023-04-18T10:33:32.276Z,37.88
2023-04-18T10:34:37.549Z,37.58
2023-04-18T10:36:11.553Z,38.40
2023-04-18T10:37:13.299Z,38.43
2023-04-18T10:38:17.986Z,37.98
2023-04-18T10:39:21.965Z,37.91
2023-04-18T10:40:34.332Z,37.88
2023-04-18T10:41:49.459Z,37.79
2023-04-18T10:42:52.106Z,37.79
2023-04-18T10:44:15.733Z,38.08
2023-04-18T10:45:22.612Z,38.66
2023-04-18T10:46:31.831Z,38.08
2023-04-18T10:47:34.675Z,37.99
2023-04-18T10:48:39.181Z,37.82
2023-04-18T10:49:55.900Z,38.45
2023-04-18T10:51:14.127Z,38.17
2023-04-18T10:52:15.985Z,38.36
2023-04-18T10:53:17.622Z,38.08
2023-04-18T10:54:43.564Z,38.12
2023-04-18T10:55:54.538Z,38.09
2023-04-18T10:56:58.815Z,38.23
2023-04-18T10:58:00.842Z,38.57
2023-04-18T10:59:03.669Z,38.68
2023-04-18T11:00:11.063Z,38.48
2023-04-18T11:01:22.308Z,38.29
2023-04-18T11:02:32.489Z,38.42
2023-04-18T11:03:34.837Z,38.09
2023-04-18T11:04:37.512Z,38.45
2023-04-18T11:05:39.353Z,38.97
2023-04-18T11:06:54.942Z,38.57
2023-04-18T11:07:56.752Z,38.52
2023-04-18T11:09:14.049Z,38.71
2023-04-18T11:10:26.408Z,37.85
2023-04-18T11:11:28.211Z,38.08
2023-04-18T11:12:35.528Z,38.25
2023-04-18T11:13:52.898Z,37.79
2023-04-18T11:14:54.612Z,38.34
2023-04-18T11:15:56.105Z,38.24
2023-04-18T11:16:57.841Z,38.11
2023-04-18T11:18:05.226Z,37.94
2023-04-18T11:19:21.115Z,37.83
2023-04-18T11:20:23.111Z,37.84
2023-04-18T11:21:30.425Z,36.95
2023-04-18T11:22:48.814Z,36.92
2023-04-18T11:23:50.557Z,37.30
2023-04-18T11:24:52.915Z,37.81
2023-04-18T11:25:56.394Z,38.11
2023-04-18T11:26:58.349Z,37.64
2023-04-18T11:28:03.519Z,38.32
2023-04-18T11:29:06.461Z,37.57
2023-04-18T11:30:08.813Z,37.66
2023-04-18T11:31:16.219Z,37.15
2023-04-18T11:32:17.849Z,37.70
2023-04-18T11:33:19.545Z,38.28
2023-04-18T11:34:21.279Z,38.08
2023-04-18T11:35:25.301Z,37.69
2023-04-18T11:36:26.888Z,38.23
2023-04-18T11:37:31.006Z,38.73
2023-04-18T11:38:33.376Z,38.43
2023-04-18T11:39:40.802Z,39.14
2023-04-18T11:40:49.142Z,38.44
2023-04-18T11:41:53.082Z,38.00
2023-04-18T11:42:55.373Z,37.55
2023-04-18T11:43:56.946Z,37.42
2023-04-18T11:44:58.587Z,37.80
2023-04-18T11:46:02.334Z,38.22
2023-04-18T11:47:09.265Z,38.09
2023-04-18T11:48:11.374Z,37.63
2023-04-18T11:49:26.021Z,37.65
2023-04-18T11:50:27.841Z,37.69
2023-04-18T11:51:39.017Z,37.87
2023-04-18T11:52:42.443Z,38.38
2023-04-18T11:53:47.226Z,38.07
2023-04-18T11:54:48.787Z,38.16
2023-04-18T11:55:55.730Z,38.28
2023-04-18T11:56:57.788Z,37.64
2023-04-18T11:58:02.352Z,37.19
2023-04-18T11:59:10.164Z,37.76
2023-04-18T12:00:12.704Z,37.87
2023-04-18T12:01:19.281Z,38.32
2023-04-18T12:02:22.788Z,38.43
2023-04-18T12:03:29.143Z,38.44
2023-04-18T12:04:49.347Z,38.27
2023-04-18T12:06:00.729Z,38.23
2023-04-18T12:07:02.566Z,38.49
2023-04-18T12:08:27.264Z,38.69
2023-04-18T12:09:29.051Z,38.38
2023-04-18T12:10:30.702Z,38.98
2023-04-18T12:11:32.324Z,38.07
2023-04-18T12:12:34.175Z,38.33
2023-04-18T12:13:35.931Z,38.70
2023-04-18T12:14:39.799Z,39.13
2023-04-18T12:15:44.653Z,38.63
2023-04-18T12:16:46.431Z,38.67
2023-04-18T12:17:54.467Z,38.74
2023-04-18T12:19:02.306Z,37.97
2023-04-18T12:20:05.751Z,38.44
2023-04-18T12:21:07.552Z,38.76
2023-04-18T12:22:11.459Z,38.73
2023-04-18T12:23:32.313Z,38.15
2023-04-18T12:24:34.614Z,37.60
2023-04-18T12:25:36.441Z,38.20
2023-04-18T12:26:45.588Z,38.57
2023-04-18T12:27:51.991Z,38.60
2023-04-18T12:28:58.321Z,38.24
2023-04-18T12:30:02.203Z,37.67
2023-04-18T12:31:07.379Z,37.73
2023-04-18T12:32:09.252Z,38.17
2023-04-18T12:33:11.288Z,38.04
2023-04-18T12:34:13.746Z,38.33
2023-04-18T12:35:16.588Z,39.00
2023-04-18T12:36:18.196Z,38.31
2023-04-18T12:37:25.516Z,38.37
2023-04-18T12:38:27.576Z,37.76
2023-04-18T12:39:29.186Z,38.54
2023-04-18T12:40:30.866Z,38.41
2023-04-18T12:41:32.501Z,38.50
2023-04-18T12:42:34.162Z,38.53
2023-04-18T12:43:35.722Z,37.52
2023-04-18T12:44:37.362Z,37.42
2023-04-18T12:45:38.892Z,38.10
2023-04-18T12:46:40.632Z,38.68
2023-04-18T12:47:44.651Z,37.39
2023-04-18T12:48:46.504Z,37.46
2023-04-18T12:49:50.453Z,37.84
2023-04-18T12:50:53.907Z,38.84
2023-04-18T12:51:57.886Z,38.35
2023-04-18T12:53:01.033Z,37.96
2023-04-18T12:54:02.713Z,38.10
2023-04-18T12:55:05.869Z,38.56
2023-04-18T12:56:07.885Z,37.90
2023-04-18T12:57:09.662Z,38.03
2023-04-18T12:58:11.265Z,37.75
2023-04-18T12:59:13.161Z,37.99
2023-04-18T13:00:15.181Z,38.14
2023-04-18T13:01:19.835Z,38.20
2023-04-18T13:02:24.058Z,38.32
2023-04-18T13:03:26.435Z,38.42
2023-04-18T13:04:28.245Z,38.51
2023-04-18T13:05:32.885Z,37.89
2023-04-18T13:06:37.420Z,38.08
2023-04-18T13:07:43.018Z,38.39
2023-04-18T13:08:45.188Z,37.49
2023-04-18T13:09:46.857Z,37.62
2023-04-18T13:10:48.527Z,37.61
2023-04-18T13:11:50.111Z,38.28
2023-04-18T13:12:52.549Z,37.55
2023-04-18T13:13:55.130Z,37.67
2023-04-18T13:14:57.570Z,38.11
2023-04-18T13:15:59.330Z,38.21
2023-04-18T13:17:00.992Z,37.96
2023-04-18T13:18:05.190Z,37.55
2023-04-18T13:19:06.888Z,37.59
2023-04-18T13:20:12.344Z,38.01
2023-04-18T13:21:13.984Z,37.19
2023-04-18T13:22:15.680Z,37.91
2023-04-18T13:23:19.589Z,37.84
2023-04-18T13:24:21.444Z,38.31
2023-04-18T13:25:23.263Z,37.99
2023-04-18T13:26:29.975Z,38.03
2023-04-18T13:27:34.203Z,37.82
2023-04-18T13:28:35.879Z,37.93
2023-04-18T13:29:42.696Z,37.01
2023-04-18T13:30:44.299Z,36.81
2023-04-18T13:31:45.963Z,37.08
2023-04-18T13:32:47.652Z,37.64
2023-04-18T13:33:49.330Z,36.71
2023-04-18T13:34:51.181Z,36.79
2023-04-18T13:35:52.821Z,36.92
2023-04-18T13:36:54.332Z,36.87
2023-04-18T13:37:56.637Z,36.86
2023-04-18T13:38:58.148Z,36.94
2023-04-18T13:40:05.553Z,36.93
2023-04-18T13:41:12.731Z,36.81
2023-04-18T13:42:18.544Z,37.03
2023-04-18T13:43:20.202Z,36.50
2023-04-18T13:44:25.154Z,36.32
2023-04-18T13:45:26.765Z,36.07
2023-04-18T13:46:28.471Z,36.09